<?xml version="1.0" encoding="UTF-8" standalone="no" ?>
<gpx xmlns="http://www.topografix.com/GPX/1/1" xmlns:xsi="http://www.w3.org/2001/XMLSchema-instance" xsi:schemaLocation="http://www.topografix.com/GPX/1/1 http://www.topografix.com/GPX/1/1/gpx.xsd" version="1.1" creator="VisuGPX - https://www.visugpx.com">
  <metadata>
    <name>SSOL vtt sortie 15/1</name>
    <desc><![CDATA[Beau temps froid, sol gelé jusqu\'à 1/2 heure de l\'arrivée]]></desc>
  </metadata>
  <trk>
    <name><![CDATA[Ssol 15/1]]></name>
    <desc><![CDATA[(null)]]></desc>
    <trkseg>
      <trkpt lat="47.71713" lon="7.39449">
        <ele>239.47435</ele>
        <time>2012-01-15T07:47:53Z</time>
      </trkpt>
      <trkpt lat="47.71713" lon="7.39449">
        <ele>239.47435</ele>
        <time>2012-01-15T07:47:54Z</time>
      </trkpt>
      <trkpt lat="47.71716" lon="7.39587">
        <ele>259.626923</ele>
        <time>2012-01-15T07:48:56Z</time>
      </trkpt>
      <trkpt lat="47.71652" lon="7.39687">
        <ele>258.3797</ele>
        <time>2012-01-15T07:49:13Z</time>
      </trkpt>
      <trkpt lat="47.71576" lon="7.39763">
        <ele>250.654099</ele>
        <time>2012-01-15T07:49:27Z</time>
      </trkpt>
      <trkpt lat="47.71596" lon="7.39898">
        <ele>252.665848</ele>
        <time>2012-01-15T07:49:42Z</time>
      </trkpt>
      <trkpt lat="47.71589" lon="7.40038">
        <ele>250.563522</ele>
        <time>2012-01-15T07:49:57Z</time>
      </trkpt>
      <trkpt lat="47.71579" lon="7.40171">
        <ele>243.129166</ele>
        <time>2012-01-15T07:50:11Z</time>
      </trkpt>
      <trkpt lat="47.71547" lon="7.403">
        <ele>238.573135</ele>
        <time>2012-01-15T07:50:26Z</time>
      </trkpt>
      <trkpt lat="47.7148" lon="7.4039">
        <ele>246.697128</ele>
        <time>2012-01-15T07:50:41Z</time>
      </trkpt>
      <trkpt lat="47.71439" lon="7.40511">
        <ele>248.396866</ele>
        <time>2012-01-15T07:51:02Z</time>
      </trkpt>
      <trkpt lat="47.7151" lon="7.40607">
        <ele>247.268295</ele>
        <time>2012-01-15T07:51:17Z</time>
      </trkpt>
      <trkpt lat="47.71584" lon="7.40696">
        <ele>242.024368</ele>
        <time>2012-01-15T07:51:32Z</time>
      </trkpt>
      <trkpt lat="47.71629" lon="7.40822">
        <ele>242.715561</ele>
        <time>2012-01-15T07:51:47Z</time>
      </trkpt>
      <trkpt lat="47.71689" lon="7.40933">
        <ele>244.841202</ele>
        <time>2012-01-15T07:52:02Z</time>
      </trkpt>
      <trkpt lat="47.71759" lon="7.41029">
        <ele>246.048233</ele>
        <time>2012-01-15T07:52:17Z</time>
      </trkpt>
      <trkpt lat="47.71845" lon="7.4109">
        <ele>248.216141</ele>
        <time>2012-01-15T07:52:32Z</time>
      </trkpt>
      <trkpt lat="47.71928" lon="7.41141">
        <ele>241.006088</ele>
        <time>2012-01-15T07:52:46Z</time>
      </trkpt>
      <trkpt lat="47.71996" lon="7.41234">
        <ele>242.926804</ele>
        <time>2012-01-15T07:53:01Z</time>
      </trkpt>
      <trkpt lat="47.72058" lon="7.41332">
        <ele>242.826248</ele>
        <time>2012-01-15T07:53:16Z</time>
      </trkpt>
      <trkpt lat="47.72119" lon="7.41433">
        <ele>242.852798</ele>
        <time>2012-01-15T07:53:31Z</time>
      </trkpt>
      <trkpt lat="47.72197" lon="7.41499">
        <ele>242.194962</ele>
        <time>2012-01-15T07:53:46Z</time>
      </trkpt>
      <trkpt lat="47.72254" lon="7.41604">
        <ele>244.162949</ele>
        <time>2012-01-15T07:54:02Z</time>
      </trkpt>
      <trkpt lat="47.72269" lon="7.41741">
        <ele>253.962357</ele>
        <time>2012-01-15T07:54:18Z</time>
      </trkpt>
      <trkpt lat="47.72311" lon="7.41861">
        <ele>244.678848</ele>
        <time>2012-01-15T07:54:46Z</time>
      </trkpt>
      <trkpt lat="47.72393" lon="7.41929">
        <ele>241.95607</ele>
        <time>2012-01-15T07:55:05Z</time>
      </trkpt>
      <trkpt lat="47.72483" lon="7.41936">
        <ele>244.189346</ele>
        <time>2012-01-15T07:55:22Z</time>
      </trkpt>
      <trkpt lat="47.72535" lon="7.42057">
        <ele>244.100143</ele>
        <time>2012-01-15T07:55:48Z</time>
      </trkpt>
      <trkpt lat="47.72625" lon="7.42082">
        <ele>247.06221</ele>
        <time>2012-01-15T07:56:05Z</time>
      </trkpt>
      <trkpt lat="47.72715" lon="7.42088">
        <ele>244.74437</ele>
        <time>2012-01-15T07:56:23Z</time>
      </trkpt>
      <trkpt lat="47.7274" lon="7.42218">
        <ele>245.377731</ele>
        <time>2012-01-15T07:56:48Z</time>
      </trkpt>
      <trkpt lat="47.72827" lon="7.42257">
        <ele>243.034286</ele>
        <time>2012-01-15T07:57:08Z</time>
      </trkpt>
      <trkpt lat="47.72816" lon="7.42394">
        <ele>243.646194</ele>
        <time>2012-01-15T08:12:01Z</time>
      </trkpt>
      <trkpt lat="47.72763" lon="7.42503">
        <ele>244.96196</ele>
        <time>2012-01-15T08:12:43Z</time>
      </trkpt>
      <trkpt lat="47.72669" lon="7.42497">
        <ele>244.370193</ele>
        <time>2012-01-15T08:13:05Z</time>
      </trkpt>
      <trkpt lat="47.72578" lon="7.42482">
        <ele>245.822433</ele>
        <time>2012-01-15T08:13:23Z</time>
      </trkpt>
      <trkpt lat="47.72493" lon="7.42431">
        <ele>244.183304</ele>
        <time>2012-01-15T08:13:52Z</time>
      </trkpt>
      <trkpt lat="47.72399" lon="7.42446">
        <ele>243.205887</ele>
        <time>2012-01-15T08:14:11Z</time>
      </trkpt>
      <trkpt lat="47.72328" lon="7.42359">
        <ele>248.54332</ele>
        <time>2012-01-15T08:14:44Z</time>
      </trkpt>
      <trkpt lat="47.72311" lon="7.42225">
        <ele>246.841141</ele>
        <time>2012-01-15T08:17:20Z</time>
      </trkpt>
      <trkpt lat="47.72219" lon="7.42237">
        <ele>244.489822</ele>
        <time>2012-01-15T08:17:41Z</time>
      </trkpt>
      <trkpt lat="47.72129" lon="7.42256">
        <ele>245.71669</ele>
        <time>2012-01-15T08:18:02Z</time>
      </trkpt>
      <trkpt lat="47.72038" lon="7.4228">
        <ele>242.066208</ele>
        <time>2012-01-15T08:18:23Z</time>
      </trkpt>
      <trkpt lat="47.71968" lon="7.42191">
        <ele>245.965286</ele>
        <time>2012-01-15T08:18:53Z</time>
      </trkpt>
      <trkpt lat="47.719" lon="7.42102">
        <ele>238.87352</ele>
        <time>2012-01-15T08:19:20Z</time>
      </trkpt>
      <trkpt lat="47.7181" lon="7.42119">
        <ele>243.164871</ele>
        <time>2012-01-15T08:19:37Z</time>
      </trkpt>
      <trkpt lat="47.71717" lon="7.42137">
        <ele>243.615799</ele>
        <time>2012-01-15T08:19:57Z</time>
      </trkpt>
      <trkpt lat="47.71624" lon="7.42155">
        <ele>247.000046</ele>
        <time>2012-01-15T08:20:17Z</time>
      </trkpt>
      <trkpt lat="47.71531" lon="7.42171">
        <ele>245.190811</ele>
        <time>2012-01-15T08:20:38Z</time>
      </trkpt>
      <trkpt lat="47.71512" lon="7.4204">
        <ele>257.646576</ele>
        <time>2012-01-15T08:21:00Z</time>
      </trkpt>
      <trkpt lat="47.71494" lon="7.41909">
        <ele>247.998001</ele>
        <time>2012-01-15T08:21:20Z</time>
      </trkpt>
      <trkpt lat="47.71475" lon="7.41778">
        <ele>247.630234</ele>
        <time>2012-01-15T08:21:39Z</time>
      </trkpt>
      <trkpt lat="47.71431" lon="7.41655">
        <ele>244.616196</ele>
        <time>2012-01-15T08:21:59Z</time>
      </trkpt>
      <trkpt lat="47.71383" lon="7.41537">
        <ele>245.176712</ele>
        <time>2012-01-15T08:22:18Z</time>
      </trkpt>
      <trkpt lat="47.71367" lon="7.41403">
        <ele>245.678543</ele>
        <time>2012-01-15T08:22:38Z</time>
      </trkpt>
      <trkpt lat="47.71359" lon="7.41263">
        <ele>246.057144</ele>
        <time>2012-01-15T08:22:58Z</time>
      </trkpt>
      <trkpt lat="47.71347" lon="7.41124">
        <ele>247.394577</ele>
        <time>2012-01-15T08:23:18Z</time>
      </trkpt>
      <trkpt lat="47.71333" lon="7.4099">
        <ele>246.008835</ele>
        <time>2012-01-15T08:23:37Z</time>
      </trkpt>
      <trkpt lat="47.71329" lon="7.40852">
        <ele>242.059708</ele>
        <time>2012-01-15T08:23:57Z</time>
      </trkpt>
      <trkpt lat="47.71327" lon="7.40716">
        <ele>241.172958</ele>
        <time>2012-01-15T08:24:20Z</time>
      </trkpt>
      <trkpt lat="47.71335" lon="7.40583">
        <ele>243.759903</ele>
        <time>2012-01-15T08:24:38Z</time>
      </trkpt>
      <trkpt lat="47.71245" lon="7.40554">
        <ele>246.35759</ele>
        <time>2012-01-15T08:25:12Z</time>
      </trkpt>
      <trkpt lat="47.71154" lon="7.40577">
        <ele>242.763077</ele>
        <time>2012-01-15T08:25:32Z</time>
      </trkpt>
      <trkpt lat="47.71062" lon="7.40595">
        <ele>244.826797</ele>
        <time>2012-01-15T08:25:51Z</time>
      </trkpt>
      <trkpt lat="47.70978" lon="7.40656">
        <ele>248.427017</ele>
        <time>2012-01-15T08:26:15Z</time>
      </trkpt>
      <trkpt lat="47.70889" lon="7.4069">
        <ele>253.498764</ele>
        <time>2012-01-15T08:26:40Z</time>
      </trkpt>
      <trkpt lat="47.70796" lon="7.40688">
        <ele>253.395706</ele>
        <time>2012-01-15T08:27:04Z</time>
      </trkpt>
      <trkpt lat="47.70703" lon="7.4072">
        <ele>243.359482</ele>
        <time>2012-01-15T08:27:19Z</time>
      </trkpt>
      <trkpt lat="47.70615" lon="7.40682">
        <ele>249.766281</ele>
        <time>2012-01-15T08:27:37Z</time>
      </trkpt>
      <trkpt lat="47.70524" lon="7.40647">
        <ele>249.276779</ele>
        <time>2012-01-15T08:27:57Z</time>
      </trkpt>
      <trkpt lat="47.70439" lon="7.40602">
        <ele>244.996292</ele>
        <time>2012-01-15T08:28:17Z</time>
      </trkpt>
      <trkpt lat="47.70354" lon="7.40552">
        <ele>246.75856</ele>
        <time>2012-01-15T08:28:38Z</time>
      </trkpt>
      <trkpt lat="47.70262" lon="7.40539">
        <ele>246.587723</ele>
        <time>2012-01-15T08:28:58Z</time>
      </trkpt>
      <trkpt lat="47.7017" lon="7.40554">
        <ele>250.21965</ele>
        <time>2012-01-15T08:29:20Z</time>
      </trkpt>
      <trkpt lat="47.7008" lon="7.40581">
        <ele>246.004074</ele>
        <time>2012-01-15T08:29:42Z</time>
      </trkpt>
      <trkpt lat="47.6999" lon="7.40553">
        <ele>246.095596</ele>
        <time>2012-01-15T08:30:05Z</time>
      </trkpt>
      <trkpt lat="47.69918" lon="7.4047">
        <ele>250.680618</ele>
        <time>2012-01-15T08:30:25Z</time>
      </trkpt>
      <trkpt lat="47.69846" lon="7.40379">
        <ele>251.190262</ele>
        <time>2012-01-15T08:30:53Z</time>
      </trkpt>
      <trkpt lat="47.69755" lon="7.40383">
        <ele>252.90416</ele>
        <time>2012-01-15T08:31:12Z</time>
      </trkpt>
      <trkpt lat="47.69664" lon="7.40385">
        <ele>248.228653</ele>
        <time>2012-01-15T08:31:32Z</time>
      </trkpt>
      <trkpt lat="47.69571" lon="7.40362">
        <ele>250.789291</ele>
        <time>2012-01-15T08:31:53Z</time>
      </trkpt>
      <trkpt lat="47.69494" lon="7.40433">
        <ele>252.131149</ele>
        <time>2012-01-15T08:32:14Z</time>
      </trkpt>
      <trkpt lat="47.69546" lon="7.40547">
        <ele>255.441971</ele>
        <time>2012-01-15T08:32:56Z</time>
      </trkpt>
      <trkpt lat="47.69619" lon="7.40637">
        <ele>248.726334</ele>
        <time>2012-01-15T08:33:13Z</time>
      </trkpt>
      <trkpt lat="47.69676" lon="7.40741">
        <ele>251.640762</ele>
        <time>2012-01-15T08:33:31Z</time>
      </trkpt>
      <trkpt lat="47.69619" lon="7.40848">
        <ele>255.948776</ele>
        <time>2012-01-15T08:33:57Z</time>
      </trkpt>
      <trkpt lat="47.69528" lon="7.40864">
        <ele>264.652802</ele>
        <time>2012-01-15T08:34:39Z</time>
      </trkpt>
      <trkpt lat="47.69437" lon="7.40883">
        <ele>272.233246</ele>
        <time>2012-01-15T08:35:10Z</time>
      </trkpt>
      <trkpt lat="47.69348" lon="7.40852">
        <ele>275.334656</ele>
        <time>2012-01-15T08:35:46Z</time>
      </trkpt>
      <trkpt lat="47.69258" lon="7.40834">
        <ele>270.044556</ele>
        <time>2012-01-15T08:36:06Z</time>
      </trkpt>
      <trkpt lat="47.69169" lon="7.40805">
        <ele>268.345673</ele>
        <time>2012-01-15T08:36:25Z</time>
      </trkpt>
      <trkpt lat="47.69121" lon="7.40919">
        <ele>266.791962</ele>
        <time>2012-01-15T08:38:20Z</time>
      </trkpt>
      <trkpt lat="47.69133" lon="7.41056">
        <ele>249.593552</ele>
        <time>2012-01-15T08:38:32Z</time>
      </trkpt>
      <trkpt lat="47.69045" lon="7.41091">
        <ele>242.649399</ele>
        <time>2012-01-15T08:38:50Z</time>
      </trkpt>
      <trkpt lat="47.68953" lon="7.4112">
        <ele>234.679123</ele>
        <time>2012-01-15T08:39:10Z</time>
      </trkpt>
      <trkpt lat="47.68864" lon="7.41154">
        <ele>239.092575</ele>
        <time>2012-01-15T08:39:30Z</time>
      </trkpt>
      <trkpt lat="47.6878" lon="7.41215">
        <ele>258.837799</ele>
        <time>2012-01-15T08:39:50Z</time>
      </trkpt>
      <trkpt lat="47.68696" lon="7.41275">
        <ele>242.994583</ele>
        <time>2012-01-15T08:40:10Z</time>
      </trkpt>
      <trkpt lat="47.68622" lon="7.41195">
        <ele>245.360214</ele>
        <time>2012-01-15T08:40:39Z</time>
      </trkpt>
      <trkpt lat="47.6854" lon="7.41136">
        <ele>247.214523</ele>
        <time>2012-01-15T08:40:57Z</time>
      </trkpt>
      <trkpt lat="47.68464" lon="7.41061">
        <ele>250.237595</ele>
        <time>2012-01-15T08:41:17Z</time>
      </trkpt>
      <trkpt lat="47.68391" lon="7.40979">
        <ele>253.133072</ele>
        <time>2012-01-15T08:41:40Z</time>
      </trkpt>
      <trkpt lat="47.68321" lon="7.40894">
        <ele>254.127518</ele>
        <time>2012-01-15T08:42:08Z</time>
      </trkpt>
      <trkpt lat="47.68228" lon="7.40923">
        <ele>260.099335</ele>
        <time>2012-01-15T08:42:42Z</time>
      </trkpt>
      <trkpt lat="47.6814" lon="7.40894">
        <ele>256.742279</ele>
        <time>2012-01-15T08:43:17Z</time>
      </trkpt>
      <trkpt lat="47.68054" lon="7.40851">
        <ele>256.726776</ele>
        <time>2012-01-15T08:43:49Z</time>
      </trkpt>
      <trkpt lat="47.67991" lon="7.40947">
        <ele>261.98999</ele>
        <time>2012-01-15T08:44:15Z</time>
      </trkpt>
      <trkpt lat="47.67921" lon="7.41035">
        <ele>269.832764</ele>
        <time>2012-01-15T08:44:39Z</time>
      </trkpt>
      <trkpt lat="47.67836" lon="7.4099">
        <ele>276.099548</ele>
        <time>2012-01-15T08:45:06Z</time>
      </trkpt>
      <trkpt lat="47.67749" lon="7.40956">
        <ele>281.700531</ele>
        <time>2012-01-15T08:45:28Z</time>
      </trkpt>
      <trkpt lat="47.6766" lon="7.40923">
        <ele>281.640045</ele>
        <time>2012-01-15T08:45:54Z</time>
      </trkpt>
      <trkpt lat="47.67574" lon="7.40873">
        <ele>281.351685</ele>
        <time>2012-01-15T08:46:22Z</time>
      </trkpt>
      <trkpt lat="47.67487" lon="7.40827">
        <ele>291.763</ele>
        <time>2012-01-15T08:46:51Z</time>
      </trkpt>
      <trkpt lat="47.67401" lon="7.40786">
        <ele>295.254944</ele>
        <time>2012-01-15T08:47:22Z</time>
      </trkpt>
      <trkpt lat="47.67321" lon="7.40724">
        <ele>310.36969</ele>
        <time>2012-01-15T08:47:57Z</time>
      </trkpt>
      <trkpt lat="47.67256" lon="7.40628">
        <ele>308.502228</ele>
        <time>2012-01-15T08:48:30Z</time>
      </trkpt>
      <trkpt lat="47.67195" lon="7.40528">
        <ele>305.592804</ele>
        <time>2012-01-15T08:49:01Z</time>
      </trkpt>
      <trkpt lat="47.67134" lon="7.40426">
        <ele>312.525604</ele>
        <time>2012-01-15T08:49:35Z</time>
      </trkpt>
      <trkpt lat="47.67066" lon="7.40334">
        <ele>309.807251</ele>
        <time>2012-01-15T08:50:03Z</time>
      </trkpt>
      <trkpt lat="47.66988" lon="7.40264">
        <ele>315.739288</ele>
        <time>2012-01-15T08:50:31Z</time>
      </trkpt>
      <trkpt lat="47.66914" lon="7.40187">
        <ele>315.246948</ele>
        <time>2012-01-15T08:52:58Z</time>
      </trkpt>
      <trkpt lat="47.66839" lon="7.40112">
        <ele>330.100464</ele>
        <time>2012-01-15T08:53:31Z</time>
      </trkpt>
      <trkpt lat="47.66757" lon="7.40049">
        <ele>314.571655</ele>
        <time>2012-01-15T08:54:16Z</time>
      </trkpt>
      <trkpt lat="47.66668" lon="7.40018">
        <ele>330.419159</ele>
        <time>2012-01-15T08:54:42Z</time>
      </trkpt>
      <trkpt lat="47.66582" lon="7.39973">
        <ele>347.127014</ele>
        <time>2012-01-15T08:55:09Z</time>
      </trkpt>
      <trkpt lat="47.66527" lon="7.39866">
        <ele>346.999542</ele>
        <time>2012-01-15T08:55:37Z</time>
      </trkpt>
      <trkpt lat="47.66439" lon="7.39834">
        <ele>346.40979</ele>
        <time>2012-01-15T08:56:36Z</time>
      </trkpt>
      <trkpt lat="47.66358" lon="7.39895">
        <ele>329.361511</ele>
        <time>2012-01-15T08:56:55Z</time>
      </trkpt>
      <trkpt lat="47.66278" lon="7.39971">
        <ele>326.702728</ele>
        <time>2012-01-15T08:57:18Z</time>
      </trkpt>
      <trkpt lat="47.66187" lon="7.39997">
        <ele>323.427246</ele>
        <time>2012-01-15T08:57:33Z</time>
      </trkpt>
      <trkpt lat="47.66095" lon="7.40017">
        <ele>319.377716</ele>
        <time>2012-01-15T08:57:45Z</time>
      </trkpt>
      <trkpt lat="47.66002" lon="7.40044">
        <ele>311.770874</ele>
        <time>2012-01-15T08:57:56Z</time>
      </trkpt>
      <trkpt lat="47.65913" lon="7.40068">
        <ele>304.622406</ele>
        <time>2012-01-15T08:58:07Z</time>
      </trkpt>
      <trkpt lat="47.65823" lon="7.40085">
        <ele>302.2164</ele>
        <time>2012-01-15T08:58:20Z</time>
      </trkpt>
      <trkpt lat="47.65765" lon="7.39981">
        <ele>298.436707</ele>
        <time>2012-01-15T08:58:51Z</time>
      </trkpt>
      <trkpt lat="47.65794" lon="7.39852">
        <ele>295.754456</ele>
        <time>2012-01-15T08:59:21Z</time>
      </trkpt>
      <trkpt lat="47.65821" lon="7.39722">
        <ele>301.656189</ele>
        <time>2012-01-15T08:59:38Z</time>
      </trkpt>
      <trkpt lat="47.65842" lon="7.39593">
        <ele>303.635712</ele>
        <time>2012-01-15T08:59:53Z</time>
      </trkpt>
      <trkpt lat="47.65842" lon="7.39457">
        <ele>301.18454</ele>
        <time>2012-01-15T09:00:08Z</time>
      </trkpt>
      <trkpt lat="47.65825" lon="7.39325">
        <ele>304.162506</ele>
        <time>2012-01-15T09:00:23Z</time>
      </trkpt>
      <trkpt lat="47.65813" lon="7.39193">
        <ele>309.111786</ele>
        <time>2012-01-15T09:00:38Z</time>
      </trkpt>
      <trkpt lat="47.65805" lon="7.39058">
        <ele>311.906219</ele>
        <time>2012-01-15T09:01:05Z</time>
      </trkpt>
      <trkpt lat="47.65743" lon="7.38957">
        <ele>310.20993</ele>
        <time>2012-01-15T09:01:43Z</time>
      </trkpt>
      <trkpt lat="47.65693" lon="7.38846">
        <ele>321.57132</ele>
        <time>2012-01-15T09:02:28Z</time>
      </trkpt>
      <trkpt lat="47.65604" lon="7.38805">
        <ele>315.527954</ele>
        <time>2012-01-15T09:03:03Z</time>
      </trkpt>
      <trkpt lat="47.65515" lon="7.38793">
        <ele>323.645264</ele>
        <time>2012-01-15T09:03:39Z</time>
      </trkpt>
      <trkpt lat="47.65504" lon="7.38657">
        <ele>330.607819</ele>
        <time>2012-01-15T09:04:12Z</time>
      </trkpt>
      <trkpt lat="47.65492" lon="7.3852">
        <ele>329.886108</ele>
        <time>2012-01-15T09:04:38Z</time>
      </trkpt>
      <trkpt lat="47.6546" lon="7.38395">
        <ele>323.852448</ele>
        <time>2012-01-15T09:05:01Z</time>
      </trkpt>
      <trkpt lat="47.65369" lon="7.38385">
        <ele>320.930603</ele>
        <time>2012-01-15T09:05:20Z</time>
      </trkpt>
      <trkpt lat="47.65334" lon="7.38259">
        <ele>318.176697</ele>
        <time>2012-01-15T09:05:36Z</time>
      </trkpt>
      <trkpt lat="47.653" lon="7.38127">
        <ele>312.106995</ele>
        <time>2012-01-15T09:05:49Z</time>
      </trkpt>
      <trkpt lat="47.65252" lon="7.38012">
        <ele>305.874695</ele>
        <time>2012-01-15T09:06:03Z</time>
      </trkpt>
      <trkpt lat="47.65184" lon="7.37919">
        <ele>303.827057</ele>
        <time>2012-01-15T09:06:13Z</time>
      </trkpt>
      <trkpt lat="47.65131" lon="7.37804">
        <ele>296.548279</ele>
        <time>2012-01-15T09:06:33Z</time>
      </trkpt>
      <trkpt lat="47.65169" lon="7.37683">
        <ele>299.793701</ele>
        <time>2012-01-15T09:07:04Z</time>
      </trkpt>
      <trkpt lat="47.65248" lon="7.37607">
        <ele>300.175415</ele>
        <time>2012-01-15T09:07:25Z</time>
      </trkpt>
      <trkpt lat="47.65329" lon="7.37538">
        <ele>299.888916</ele>
        <time>2012-01-15T09:07:46Z</time>
      </trkpt>
      <trkpt lat="47.65421" lon="7.37521">
        <ele>296.303467</ele>
        <time>2012-01-15T09:08:09Z</time>
      </trkpt>
      <trkpt lat="47.65512" lon="7.37525">
        <ele>295.920868</ele>
        <time>2012-01-15T09:08:32Z</time>
      </trkpt>
      <trkpt lat="47.65599" lon="7.37482">
        <ele>305.709106</ele>
        <time>2012-01-15T09:08:55Z</time>
      </trkpt>
      <trkpt lat="47.65606" lon="7.37344">
        <ele>302.760742</ele>
        <time>2012-01-15T09:18:07Z</time>
      </trkpt>
      <trkpt lat="47.6559" lon="7.37212">
        <ele>302.254761</ele>
        <time>2012-01-15T09:18:26Z</time>
      </trkpt>
      <trkpt lat="47.65575" lon="7.37071">
        <ele>302.84256</ele>
        <time>2012-01-15T09:18:44Z</time>
      </trkpt>
      <trkpt lat="47.65558" lon="7.36933">
        <ele>310.101166</ele>
        <time>2012-01-15T09:19:02Z</time>
      </trkpt>
      <trkpt lat="47.65557" lon="7.36794">
        <ele>313.574005</ele>
        <time>2012-01-15T09:19:19Z</time>
      </trkpt>
      <trkpt lat="47.65548" lon="7.3666">
        <ele>314.978516</ele>
        <time>2012-01-15T09:19:35Z</time>
      </trkpt>
      <trkpt lat="47.65526" lon="7.36527">
        <ele>318.551544</ele>
        <time>2012-01-15T09:19:52Z</time>
      </trkpt>
      <trkpt lat="47.65506" lon="7.36393">
        <ele>324.561493</ele>
        <time>2012-01-15T09:21:38Z</time>
      </trkpt>
      <trkpt lat="47.65422" lon="7.36342">
        <ele>330.542542</ele>
        <time>2012-01-15T09:22:25Z</time>
      </trkpt>
      <trkpt lat="47.65333" lon="7.36371">
        <ele>324.191132</ele>
        <time>2012-01-15T09:22:51Z</time>
      </trkpt>
      <trkpt lat="47.65246" lon="7.36421">
        <ele>322.875977</ele>
        <time>2012-01-15T09:23:06Z</time>
      </trkpt>
      <trkpt lat="47.65161" lon="7.36476">
        <ele>323.951691</ele>
        <time>2012-01-15T09:23:27Z</time>
      </trkpt>
      <trkpt lat="47.65097" lon="7.36379">
        <ele>336.496002</ele>
        <time>2012-01-15T09:24:11Z</time>
      </trkpt>
      <trkpt lat="47.65045" lon="7.36265">
        <ele>329.886719</ele>
        <time>2012-01-15T09:24:41Z</time>
      </trkpt>
      <trkpt lat="47.64997" lon="7.36149">
        <ele>330.568329</ele>
        <time>2012-01-15T09:25:09Z</time>
      </trkpt>
      <trkpt lat="47.64961" lon="7.36024">
        <ele>352.751068</ele>
        <time>2012-01-15T09:25:28Z</time>
      </trkpt>
      <trkpt lat="47.64917" lon="7.35903">
        <ele>350.042236</ele>
        <time>2012-01-15T09:25:45Z</time>
      </trkpt>
      <trkpt lat="47.64856" lon="7.35804">
        <ele>349.803802</ele>
        <time>2012-01-15T09:26:07Z</time>
      </trkpt>
      <trkpt lat="47.64797" lon="7.35701">
        <ele>345.248322</ele>
        <time>2012-01-15T09:26:33Z</time>
      </trkpt>
      <trkpt lat="47.64745" lon="7.3559">
        <ele>343.986572</ele>
        <time>2012-01-15T09:26:58Z</time>
      </trkpt>
      <trkpt lat="47.64694" lon="7.35479">
        <ele>346.901672</ele>
        <time>2012-01-15T09:27:24Z</time>
      </trkpt>
      <trkpt lat="47.64644" lon="7.35362">
        <ele>347.518433</ele>
        <time>2012-01-15T09:27:49Z</time>
      </trkpt>
      <trkpt lat="47.64597" lon="7.35245">
        <ele>338.959198</ele>
        <time>2012-01-15T09:28:17Z</time>
      </trkpt>
      <trkpt lat="47.64548" lon="7.35133">
        <ele>340.261261</ele>
        <time>2012-01-15T09:28:38Z</time>
      </trkpt>
      <trkpt lat="47.645" lon="7.3502">
        <ele>338.969696</ele>
        <time>2012-01-15T09:28:58Z</time>
      </trkpt>
      <trkpt lat="47.64467" lon="7.34895">
        <ele>340.900574</ele>
        <time>2012-01-15T09:29:30Z</time>
      </trkpt>
      <trkpt lat="47.64429" lon="7.34767">
        <ele>338.641846</ele>
        <time>2012-01-15T09:29:49Z</time>
      </trkpt>
      <trkpt lat="47.64402" lon="7.34635">
        <ele>342.446747</ele>
        <time>2012-01-15T09:30:06Z</time>
      </trkpt>
      <trkpt lat="47.64367" lon="7.34511">
        <ele>340.031586</ele>
        <time>2012-01-15T09:30:27Z</time>
      </trkpt>
      <trkpt lat="47.64315" lon="7.34396">
        <ele>341.697235</ele>
        <time>2012-01-15T09:30:54Z</time>
      </trkpt>
      <trkpt lat="47.64253" lon="7.34293">
        <ele>341.165771</ele>
        <time>2012-01-15T09:31:16Z</time>
      </trkpt>
      <trkpt lat="47.64213" lon="7.34174">
        <ele>344.960022</ele>
        <time>2012-01-15T09:31:40Z</time>
      </trkpt>
      <trkpt lat="47.6417" lon="7.34053">
        <ele>346.890869</ele>
        <time>2012-01-15T09:32:04Z</time>
      </trkpt>
      <trkpt lat="47.64133" lon="7.33928">
        <ele>349.834167</ele>
        <time>2012-01-15T09:32:28Z</time>
      </trkpt>
      <trkpt lat="47.64094" lon="7.33805">
        <ele>352.599609</ele>
        <time>2012-01-15T09:33:00Z</time>
      </trkpt>
      <trkpt lat="47.64041" lon="7.33694">
        <ele>351.508362</ele>
        <time>2012-01-15T09:33:30Z</time>
      </trkpt>
      <trkpt lat="47.63965" lon="7.33613">
        <ele>344.605194</ele>
        <time>2012-01-15T09:33:54Z</time>
      </trkpt>
      <trkpt lat="47.6389" lon="7.33533">
        <ele>343.275024</ele>
        <time>2012-01-15T09:34:15Z</time>
      </trkpt>
      <trkpt lat="47.63916" lon="7.33404">
        <ele>339.687622</ele>
        <time>2012-01-15T09:34:51Z</time>
      </trkpt>
      <trkpt lat="47.63984" lon="7.333">
        <ele>334.134308</ele>
        <time>2012-01-15T09:35:08Z</time>
      </trkpt>
      <trkpt lat="47.64044" lon="7.33197">
        <ele>335.054718</ele>
        <time>2012-01-15T09:35:22Z</time>
      </trkpt>
      <trkpt lat="47.64106" lon="7.33099">
        <ele>334.568726</ele>
        <time>2012-01-15T09:35:38Z</time>
      </trkpt>
      <trkpt lat="47.64154" lon="7.32986">
        <ele>332.567444</ele>
        <time>2012-01-15T09:35:55Z</time>
      </trkpt>
      <trkpt lat="47.64217" lon="7.32889">
        <ele>331.859161</ele>
        <time>2012-01-15T09:36:19Z</time>
      </trkpt>
      <trkpt lat="47.64304" lon="7.32839">
        <ele>338.399567</ele>
        <time>2012-01-15T09:36:41Z</time>
      </trkpt>
      <trkpt lat="47.64385" lon="7.32775">
        <ele>328.780975</ele>
        <time>2012-01-15T09:36:51Z</time>
      </trkpt>
      <trkpt lat="47.64452" lon="7.32663">
        <ele>313.617645</ele>
        <time>2012-01-15T09:37:01Z</time>
      </trkpt>
      <trkpt lat="47.64512" lon="7.32546">
        <ele>308.434021</ele>
        <time>2012-01-15T09:37:11Z</time>
      </trkpt>
      <trkpt lat="47.6456" lon="7.32426">
        <ele>307.841614</ele>
        <time>2012-01-15T09:37:24Z</time>
      </trkpt>
      <trkpt lat="47.64596" lon="7.32298">
        <ele>304.858032</ele>
        <time>2012-01-15T09:37:40Z</time>
      </trkpt>
      <trkpt lat="47.64636" lon="7.32175">
        <ele>303.742371</ele>
        <time>2012-01-15T09:37:56Z</time>
      </trkpt>
      <trkpt lat="47.64681" lon="7.32057">
        <ele>307.373291</ele>
        <time>2012-01-15T09:38:15Z</time>
      </trkpt>
      <trkpt lat="47.64713" lon="7.31932">
        <ele>301.577728</ele>
        <time>2012-01-15T09:38:40Z</time>
      </trkpt>
      <trkpt lat="47.64767" lon="7.31824">
        <ele>313.883423</ele>
        <time>2012-01-15T09:39:14Z</time>
      </trkpt>
      <trkpt lat="47.64826" lon="7.31719">
        <ele>307.578278</ele>
        <time>2012-01-15T09:39:41Z</time>
      </trkpt>
      <trkpt lat="47.64854" lon="7.31589">
        <ele>315.485962</ele>
        <time>2012-01-15T09:40:07Z</time>
      </trkpt>
      <trkpt lat="47.64869" lon="7.31453">
        <ele>312.23822</ele>
        <time>2012-01-15T09:40:32Z</time>
      </trkpt>
      <trkpt lat="47.64901" lon="7.31327">
        <ele>323.894043</ele>
        <time>2012-01-15T09:41:03Z</time>
      </trkpt>
      <trkpt lat="47.64949" lon="7.3121">
        <ele>321.482025</ele>
        <time>2012-01-15T09:41:26Z</time>
      </trkpt>
      <trkpt lat="47.64992" lon="7.31092">
        <ele>323.967804</ele>
        <time>2012-01-15T09:41:49Z</time>
      </trkpt>
      <trkpt lat="47.65025" lon="7.30968">
        <ele>331.824402</ele>
        <time>2012-01-15T09:42:12Z</time>
      </trkpt>
      <trkpt lat="47.65057" lon="7.3084">
        <ele>337.551086</ele>
        <time>2012-01-15T09:42:34Z</time>
      </trkpt>
      <trkpt lat="47.65101" lon="7.30716">
        <ele>347.146881</ele>
        <time>2012-01-15T09:42:58Z</time>
      </trkpt>
      <trkpt lat="47.65144" lon="7.30597">
        <ele>342.643982</ele>
        <time>2012-01-15T09:43:17Z</time>
      </trkpt>
      <trkpt lat="47.65183" lon="7.30471">
        <ele>343.265961</ele>
        <time>2012-01-15T09:43:38Z</time>
      </trkpt>
      <trkpt lat="47.65201" lon="7.30337">
        <ele>352.179779</ele>
        <time>2012-01-15T09:44:00Z</time>
      </trkpt>
      <trkpt lat="47.65197" lon="7.302">
        <ele>366.721741</ele>
        <time>2012-01-15T09:44:24Z</time>
      </trkpt>
      <trkpt lat="47.65224" lon="7.3007">
        <ele>366.078949</ele>
        <time>2012-01-15T09:49:12Z</time>
      </trkpt>
      <trkpt lat="47.65256" lon="7.29942">
        <ele>369.915863</ele>
        <time>2012-01-15T09:49:45Z</time>
      </trkpt>
      <trkpt lat="47.65301" lon="7.29826">
        <ele>365.960815</ele>
        <time>2012-01-15T09:50:08Z</time>
      </trkpt>
      <trkpt lat="47.65367" lon="7.29922">
        <ele>371.48938</ele>
        <time>2012-01-15T09:50:38Z</time>
      </trkpt>
      <trkpt lat="47.65458" lon="7.29914">
        <ele>370.915405</ele>
        <time>2012-01-15T09:51:22Z</time>
      </trkpt>
      <trkpt lat="47.65542" lon="7.29963">
        <ele>369.879181</ele>
        <time>2012-01-15T09:51:59Z</time>
      </trkpt>
      <trkpt lat="47.65577" lon="7.3009">
        <ele>372.858826</ele>
        <time>2012-01-15T09:52:25Z</time>
      </trkpt>
      <trkpt lat="47.6561" lon="7.30217">
        <ele>377.360962</ele>
        <time>2012-01-15T09:52:44Z</time>
      </trkpt>
      <trkpt lat="47.65636" lon="7.30349">
        <ele>378.416107</ele>
        <time>2012-01-15T09:53:02Z</time>
      </trkpt>
      <trkpt lat="47.65664" lon="7.30477">
        <ele>378.506622</ele>
        <time>2012-01-15T09:53:54Z</time>
      </trkpt>
      <trkpt lat="47.65755" lon="7.30483">
        <ele>380.71524</ele>
        <time>2012-01-15T09:54:21Z</time>
      </trkpt>
      <trkpt lat="47.65841" lon="7.30446">
        <ele>386.501312</ele>
        <time>2012-01-15T09:54:40Z</time>
      </trkpt>
      <trkpt lat="47.65928" lon="7.30407">
        <ele>387.057434</ele>
        <time>2012-01-15T09:55:03Z</time>
      </trkpt>
      <trkpt lat="47.66018" lon="7.30427">
        <ele>389.732239</ele>
        <time>2012-01-15T09:55:26Z</time>
      </trkpt>
      <trkpt lat="47.66109" lon="7.30418">
        <ele>392.39975</ele>
        <time>2012-01-15T09:55:55Z</time>
      </trkpt>
      <trkpt lat="47.66199" lon="7.30388">
        <ele>393.851837</ele>
        <time>2012-01-15T09:56:20Z</time>
      </trkpt>
      <trkpt lat="47.66289" lon="7.30376">
        <ele>396.741791</ele>
        <time>2012-01-15T09:56:48Z</time>
      </trkpt>
      <trkpt lat="47.66352" lon="7.30474">
        <ele>392.679382</ele>
        <time>2012-01-15T09:57:40Z</time>
      </trkpt>
      <trkpt lat="47.6638" lon="7.30602">
        <ele>397.921417</ele>
        <time>2012-01-15T09:58:04Z</time>
      </trkpt>
      <trkpt lat="47.66409" lon="7.30728">
        <ele>396.590729</ele>
        <time>2012-01-15T09:58:24Z</time>
      </trkpt>
      <trkpt lat="47.66444" lon="7.30851">
        <ele>393.601166</ele>
        <time>2012-01-15T09:58:42Z</time>
      </trkpt>
      <trkpt lat="47.66483" lon="7.30971">
        <ele>392.796204</ele>
        <time>2012-01-15T09:59:00Z</time>
      </trkpt>
      <trkpt lat="47.66543" lon="7.31071">
        <ele>394.847168</ele>
        <time>2012-01-15T09:59:19Z</time>
      </trkpt>
      <trkpt lat="47.66605" lon="7.31171">
        <ele>405.27533</ele>
        <time>2012-01-15T09:59:50Z</time>
      </trkpt>
      <trkpt lat="47.66631" lon="7.31302">
        <ele>399.49472</ele>
        <time>2012-01-15T10:00:31Z</time>
      </trkpt>
      <trkpt lat="47.66638" lon="7.31439">
        <ele>398.46283</ele>
        <time>2012-01-15T10:00:57Z</time>
      </trkpt>
      <trkpt lat="47.66666" lon="7.31567">
        <ele>404.132324</ele>
        <time>2012-01-15T10:01:13Z</time>
      </trkpt>
      <trkpt lat="47.66699" lon="7.31696">
        <ele>410.860718</ele>
        <time>2012-01-15T10:01:38Z</time>
      </trkpt>
      <trkpt lat="47.66742" lon="7.31819">
        <ele>413.255585</ele>
        <time>2012-01-15T10:02:00Z</time>
      </trkpt>
      <trkpt lat="47.668" lon="7.31927">
        <ele>412.339447</ele>
        <time>2012-01-15T10:02:19Z</time>
      </trkpt>
      <trkpt lat="47.6686" lon="7.32031">
        <ele>409.343201</ele>
        <time>2012-01-15T10:02:40Z</time>
      </trkpt>
      <trkpt lat="47.6691" lon="7.32144">
        <ele>398.028748</ele>
        <time>2012-01-15T10:03:03Z</time>
      </trkpt>
      <trkpt lat="47.66954" lon="7.32264">
        <ele>402.004608</ele>
        <time>2012-01-15T10:03:31Z</time>
      </trkpt>
      <trkpt lat="47.67007" lon="7.32377">
        <ele>398.874146</ele>
        <time>2012-01-15T10:05:17Z</time>
      </trkpt>
      <trkpt lat="47.67066" lon="7.32481">
        <ele>394.85434</ele>
        <time>2012-01-15T10:05:33Z</time>
      </trkpt>
      <trkpt lat="47.6712" lon="7.32593">
        <ele>390.310394</ele>
        <time>2012-01-15T10:05:50Z</time>
      </trkpt>
      <trkpt lat="47.67156" lon="7.32717">
        <ele>393.162292</ele>
        <time>2012-01-15T10:06:09Z</time>
      </trkpt>
      <trkpt lat="47.67166" lon="7.32852">
        <ele>397.502808</ele>
        <time>2012-01-15T10:06:27Z</time>
      </trkpt>
      <trkpt lat="47.67164" lon="7.32996">
        <ele>389.451691</ele>
        <time>2012-01-15T10:06:40Z</time>
      </trkpt>
      <trkpt lat="47.67161" lon="7.33138">
        <ele>386.306763</ele>
        <time>2012-01-15T10:06:54Z</time>
      </trkpt>
      <trkpt lat="47.67172" lon="7.3328">
        <ele>377.68631</ele>
        <time>2012-01-15T10:07:07Z</time>
      </trkpt>
      <trkpt lat="47.67166" lon="7.33414">
        <ele>373.946625</ele>
        <time>2012-01-15T10:07:19Z</time>
      </trkpt>
      <trkpt lat="47.67177" lon="7.33552">
        <ele>377.091217</ele>
        <time>2012-01-15T10:07:29Z</time>
      </trkpt>
      <trkpt lat="47.67205" lon="7.33684">
        <ele>367.250671</ele>
        <time>2012-01-15T10:07:42Z</time>
      </trkpt>
      <trkpt lat="47.67202" lon="7.33824">
        <ele>361.312958</ele>
        <time>2012-01-15T10:07:56Z</time>
      </trkpt>
      <trkpt lat="47.67171" lon="7.33956">
        <ele>352.070007</ele>
        <time>2012-01-15T10:08:09Z</time>
      </trkpt>
      <trkpt lat="47.67142" lon="7.34082">
        <ele>355.092438</ele>
        <time>2012-01-15T10:08:22Z</time>
      </trkpt>
      <trkpt lat="47.67139" lon="7.34216">
        <ele>354.766937</ele>
        <time>2012-01-15T10:08:35Z</time>
      </trkpt>
      <trkpt lat="47.67136" lon="7.34353">
        <ele>347.539795</ele>
        <time>2012-01-15T10:08:49Z</time>
      </trkpt>
      <trkpt lat="47.67146" lon="7.34493">
        <ele>333.205566</ele>
        <time>2012-01-15T10:09:03Z</time>
      </trkpt>
      <trkpt lat="47.67151" lon="7.34631">
        <ele>342.228973</ele>
        <time>2012-01-15T10:09:17Z</time>
      </trkpt>
      <trkpt lat="47.67215" lon="7.34728">
        <ele>337.054779</ele>
        <time>2012-01-15T10:09:35Z</time>
      </trkpt>
      <trkpt lat="47.67278" lon="7.34829">
        <ele>320.070435</ele>
        <time>2012-01-15T10:09:54Z</time>
      </trkpt>
      <trkpt lat="47.67286" lon="7.34965">
        <ele>319.104736</ele>
        <time>2012-01-15T10:10:04Z</time>
      </trkpt>
      <trkpt lat="47.67306" lon="7.35106">
        <ele>309.409088</ele>
        <time>2012-01-15T10:10:15Z</time>
      </trkpt>
      <trkpt lat="47.67291" lon="7.35248">
        <ele>313.125885</ele>
        <time>2012-01-15T10:10:28Z</time>
      </trkpt>
      <trkpt lat="47.67281" lon="7.35386">
        <ele>303.025421</ele>
        <time>2012-01-15T10:10:40Z</time>
      </trkpt>
      <trkpt lat="47.67309" lon="7.35517">
        <ele>300.935638</ele>
        <time>2012-01-15T10:10:52Z</time>
      </trkpt>
      <trkpt lat="47.67362" lon="7.35635">
        <ele>297.305023</ele>
        <time>2012-01-15T10:11:04Z</time>
      </trkpt>
      <trkpt lat="47.67403" lon="7.35756">
        <ele>293.608795</ele>
        <time>2012-01-15T10:11:15Z</time>
      </trkpt>
      <trkpt lat="47.6746" lon="7.35875">
        <ele>294.146271</ele>
        <time>2012-01-15T10:11:27Z</time>
      </trkpt>
      <trkpt lat="47.67501" lon="7.35998">
        <ele>278.796448</ele>
        <time>2012-01-15T10:11:39Z</time>
      </trkpt>
      <trkpt lat="47.67526" lon="7.36132">
        <ele>282.36264</ele>
        <time>2012-01-15T10:11:51Z</time>
      </trkpt>
      <trkpt lat="47.67539" lon="7.36274">
        <ele>279.501648</ele>
        <time>2012-01-15T10:12:05Z</time>
      </trkpt>
      <trkpt lat="47.67553" lon="7.36408">
        <ele>270.460022</ele>
        <time>2012-01-15T10:12:18Z</time>
      </trkpt>
      <trkpt lat="47.67582" lon="7.3654">
        <ele>269.874176</ele>
        <time>2012-01-15T10:12:36Z</time>
      </trkpt>
      <trkpt lat="47.67614" lon="7.36671">
        <ele>271.635162</ele>
        <time>2012-01-15T10:12:51Z</time>
      </trkpt>
      <trkpt lat="47.67641" lon="7.368">
        <ele>273.687714</ele>
        <time>2012-01-15T10:13:12Z</time>
      </trkpt>
      <trkpt lat="47.67686" lon="7.36916">
        <ele>281.289978</ele>
        <time>2012-01-15T10:13:52Z</time>
      </trkpt>
      <trkpt lat="47.67713" lon="7.37045">
        <ele>278.870544</ele>
        <time>2012-01-15T10:14:22Z</time>
      </trkpt>
      <trkpt lat="47.67796" lon="7.37095">
        <ele>277.557617</ele>
        <time>2012-01-15T10:14:53Z</time>
      </trkpt>
      <trkpt lat="47.67888" lon="7.37107">
        <ele>273.728088</ele>
        <time>2012-01-15T10:15:14Z</time>
      </trkpt>
      <trkpt lat="47.67914" lon="7.37242">
        <ele>269.795807</ele>
        <time>2012-01-15T10:15:30Z</time>
      </trkpt>
      <trkpt lat="47.67919" lon="7.37379">
        <ele>269.020935</ele>
        <time>2012-01-15T10:15:44Z</time>
      </trkpt>
      <trkpt lat="47.6792" lon="7.3752">
        <ele>264.881195</ele>
        <time>2012-01-15T10:15:59Z</time>
      </trkpt>
      <trkpt lat="47.67906" lon="7.37658">
        <ele>259.599487</ele>
        <time>2012-01-15T10:16:13Z</time>
      </trkpt>
      <trkpt lat="47.6788" lon="7.37788">
        <ele>259.4534</ele>
        <time>2012-01-15T10:16:30Z</time>
      </trkpt>
      <trkpt lat="47.67862" lon="7.37924">
        <ele>261.71936</ele>
        <time>2012-01-15T10:16:46Z</time>
      </trkpt>
      <trkpt lat="47.67862" lon="7.38063">
        <ele>258.887238</ele>
        <time>2012-01-15T10:17:01Z</time>
      </trkpt>
      <trkpt lat="47.67888" lon="7.38194">
        <ele>256.142761</ele>
        <time>2012-01-15T10:17:17Z</time>
      </trkpt>
      <trkpt lat="47.67944" lon="7.38303">
        <ele>260.105621</ele>
        <time>2012-01-15T10:17:33Z</time>
      </trkpt>
      <trkpt lat="47.68006" lon="7.38409">
        <ele>254.862961</ele>
        <time>2012-01-15T10:17:49Z</time>
      </trkpt>
      <trkpt lat="47.68064" lon="7.38519">
        <ele>255.41716</ele>
        <time>2012-01-15T10:18:05Z</time>
      </trkpt>
      <trkpt lat="47.68129" lon="7.38611">
        <ele>255.324997</ele>
        <time>2012-01-15T10:18:20Z</time>
      </trkpt>
      <trkpt lat="47.6819" lon="7.38721">
        <ele>259.178528</ele>
        <time>2012-01-15T10:18:39Z</time>
      </trkpt>
      <trkpt lat="47.68233" lon="7.38841">
        <ele>261.28421</ele>
        <time>2012-01-15T10:18:59Z</time>
      </trkpt>
      <trkpt lat="47.6832" lon="7.38799">
        <ele>261.261108</ele>
        <time>2012-01-15T10:20:20Z</time>
      </trkpt>
      <trkpt lat="47.6841" lon="7.38789">
        <ele>257.210175</ele>
        <time>2012-01-15T10:20:43Z</time>
      </trkpt>
      <trkpt lat="47.68496" lon="7.38842">
        <ele>254.796188</ele>
        <time>2012-01-15T10:21:01Z</time>
      </trkpt>
      <trkpt lat="47.68538" lon="7.38966">
        <ele>256.916748</ele>
        <time>2012-01-15T10:21:18Z</time>
      </trkpt>
      <trkpt lat="47.68577" lon="7.39092">
        <ele>258.031036</ele>
        <time>2012-01-15T10:21:37Z</time>
      </trkpt>
      <trkpt lat="47.68627" lon="7.39206">
        <ele>256.545166</ele>
        <time>2012-01-15T10:21:51Z</time>
      </trkpt>
      <trkpt lat="47.68684" lon="7.3931">
        <ele>257.004669</ele>
        <time>2012-01-15T10:22:06Z</time>
      </trkpt>
      <trkpt lat="47.68754" lon="7.39399">
        <ele>256.96933</ele>
        <time>2012-01-15T10:22:21Z</time>
      </trkpt>
      <trkpt lat="47.68821" lon="7.39493">
        <ele>255.404831</ele>
        <time>2012-01-15T10:22:38Z</time>
      </trkpt>
      <trkpt lat="47.68873" lon="7.39611">
        <ele>255.081589</ele>
        <time>2012-01-15T10:22:54Z</time>
      </trkpt>
      <trkpt lat="47.68933" lon="7.39713">
        <ele>253.356125</ele>
        <time>2012-01-15T10:23:12Z</time>
      </trkpt>
      <trkpt lat="47.69001" lon="7.39801">
        <ele>254.301926</ele>
        <time>2012-01-15T10:23:31Z</time>
      </trkpt>
      <trkpt lat="47.69073" lon="7.39713">
        <ele>250.539658</ele>
        <time>2012-01-15T10:23:53Z</time>
      </trkpt>
      <trkpt lat="47.69163" lon="7.39669">
        <ele>254.244644</ele>
        <time>2012-01-15T10:24:14Z</time>
      </trkpt>
      <trkpt lat="47.69248" lon="7.39628">
        <ele>264.657501</ele>
        <time>2012-01-15T10:24:37Z</time>
      </trkpt>
      <trkpt lat="47.6934" lon="7.39589">
        <ele>260.90152</ele>
        <time>2012-01-15T10:25:02Z</time>
      </trkpt>
      <trkpt lat="47.69428" lon="7.3955">
        <ele>256.274261</ele>
        <time>2012-01-15T10:25:13Z</time>
      </trkpt>
      <trkpt lat="47.69518" lon="7.39527">
        <ele>256.219971</ele>
        <time>2012-01-15T10:25:31Z</time>
      </trkpt>
      <trkpt lat="47.69513" lon="7.39664">
        <ele>260.032898</ele>
        <time>2012-01-15T10:25:53Z</time>
      </trkpt>
      <trkpt lat="47.69534" lon="7.398">
        <ele>254.849075</ele>
        <time>2012-01-15T10:26:10Z</time>
      </trkpt>
      <trkpt lat="47.69552" lon="7.39939">
        <ele>257.287811</ele>
        <time>2012-01-15T10:26:26Z</time>
      </trkpt>
      <trkpt lat="47.69565" lon="7.40075">
        <ele>256.407135</ele>
        <time>2012-01-15T10:26:42Z</time>
      </trkpt>
      <trkpt lat="47.69576" lon="7.40212">
        <ele>252.396347</ele>
        <time>2012-01-15T10:26:59Z</time>
      </trkpt>
      <trkpt lat="47.69576" lon="7.40346">
        <ele>250.807693</ele>
        <time>2012-01-15T10:27:16Z</time>
      </trkpt>
      <trkpt lat="47.69663" lon="7.40386">
        <ele>247.567734</ele>
        <time>2012-01-15T10:27:34Z</time>
      </trkpt>
      <trkpt lat="47.69753" lon="7.40384">
        <ele>246.253036</ele>
        <time>2012-01-15T10:27:52Z</time>
      </trkpt>
      <trkpt lat="47.69844" lon="7.40375">
        <ele>243.523361</ele>
        <time>2012-01-15T10:28:10Z</time>
      </trkpt>
      <trkpt lat="47.6992" lon="7.40454">
        <ele>244.703873</ele>
        <time>2012-01-15T10:28:26Z</time>
      </trkpt>
      <trkpt lat="47.69989" lon="7.40552">
        <ele>243.38298</ele>
        <time>2012-01-15T10:28:42Z</time>
      </trkpt>
      <trkpt lat="47.70081" lon="7.4058">
        <ele>243.966873</ele>
        <time>2012-01-15T10:28:56Z</time>
      </trkpt>
      <trkpt lat="47.70171" lon="7.40553">
        <ele>252.600327</ele>
        <time>2012-01-15T10:29:07Z</time>
      </trkpt>
      <trkpt lat="47.70265" lon="7.40536">
        <ele>244.172318</ele>
        <time>2012-01-15T10:29:19Z</time>
      </trkpt>
      <trkpt lat="47.70355" lon="7.4055">
        <ele>239.370346</ele>
        <time>2012-01-15T10:29:35Z</time>
      </trkpt>
      <trkpt lat="47.70443" lon="7.40597">
        <ele>247.52153</ele>
        <time>2012-01-15T10:29:52Z</time>
      </trkpt>
      <trkpt lat="47.70532" lon="7.40651">
        <ele>244.004898</ele>
        <time>2012-01-15T10:30:10Z</time>
      </trkpt>
      <trkpt lat="47.70624" lon="7.40686">
        <ele>241.264297</ele>
        <time>2012-01-15T10:30:27Z</time>
      </trkpt>
      <trkpt lat="47.70712" lon="7.40722">
        <ele>241.487564</ele>
        <time>2012-01-15T10:30:44Z</time>
      </trkpt>
      <trkpt lat="47.708" lon="7.40689">
        <ele>247.991623</ele>
        <time>2012-01-15T10:31:01Z</time>
      </trkpt>
      <trkpt lat="47.70893" lon="7.40695">
        <ele>245.755783</ele>
        <time>2012-01-15T10:31:18Z</time>
      </trkpt>
      <trkpt lat="47.70986" lon="7.40656">
        <ele>247.246994</ele>
        <time>2012-01-15T10:31:30Z</time>
      </trkpt>
      <trkpt lat="47.7107" lon="7.40588">
        <ele>243.655655</ele>
        <time>2012-01-15T10:31:41Z</time>
      </trkpt>
      <trkpt lat="47.71159" lon="7.4057">
        <ele>235.908981</ele>
        <time>2012-01-15T10:31:51Z</time>
      </trkpt>
      <trkpt lat="47.71254" lon="7.40551">
        <ele>238.252518</ele>
        <time>2012-01-15T10:32:04Z</time>
      </trkpt>
      <trkpt lat="47.71344" lon="7.4053">
        <ele>242.786972</ele>
        <time>2012-01-15T10:32:19Z</time>
      </trkpt>
      <trkpt lat="47.71328" lon="7.40665">
        <ele>243.099472</ele>
        <time>2012-01-15T10:32:35Z</time>
      </trkpt>
      <trkpt lat="47.71327" lon="7.40799">
        <ele>238.757462</ele>
        <time>2012-01-15T10:32:56Z</time>
      </trkpt>
      <trkpt lat="47.71331" lon="7.40935">
        <ele>240.655441</ele>
        <time>2012-01-15T10:33:17Z</time>
      </trkpt>
      <trkpt lat="47.71341" lon="7.41075">
        <ele>246.441635</ele>
        <time>2012-01-15T10:33:35Z</time>
      </trkpt>
      <trkpt lat="47.71353" lon="7.41215">
        <ele>240.579727</ele>
        <time>2012-01-15T10:33:52Z</time>
      </trkpt>
      <trkpt lat="47.7136" lon="7.41351">
        <ele>243.887253</ele>
        <time>2012-01-15T10:34:08Z</time>
      </trkpt>
      <trkpt lat="47.7137" lon="7.41491">
        <ele>243.850815</ele>
        <time>2012-01-15T10:34:24Z</time>
      </trkpt>
      <trkpt lat="47.71405" lon="7.41614">
        <ele>244.387619</ele>
        <time>2012-01-15T10:34:38Z</time>
      </trkpt>
      <trkpt lat="47.71456" lon="7.41733">
        <ele>243.765549</ele>
        <time>2012-01-15T10:34:52Z</time>
      </trkpt>
      <trkpt lat="47.71484" lon="7.4186">
        <ele>245.828537</ele>
        <time>2012-01-15T10:35:06Z</time>
      </trkpt>
      <trkpt lat="47.71497" lon="7.41995">
        <ele>245.303146</ele>
        <time>2012-01-15T10:35:25Z</time>
      </trkpt>
      <trkpt lat="47.71514" lon="7.42129">
        <ele>248.56987</ele>
        <time>2012-01-15T10:35:44Z</time>
      </trkpt>
      <trkpt lat="47.71603" lon="7.42165">
        <ele>246.508957</ele>
        <time>2012-01-15T10:36:04Z</time>
      </trkpt>
      <trkpt lat="47.71693" lon="7.42145">
        <ele>243.025436</ele>
        <time>2012-01-15T10:36:20Z</time>
      </trkpt>
      <trkpt lat="47.71783" lon="7.42127">
        <ele>245.825089</ele>
        <time>2012-01-15T10:36:36Z</time>
      </trkpt>
      <trkpt lat="47.71876" lon="7.42107">
        <ele>239.807114</ele>
        <time>2012-01-15T10:36:51Z</time>
      </trkpt>
      <trkpt lat="47.71969" lon="7.42088">
        <ele>237.860764</ele>
        <time>2012-01-15T10:37:07Z</time>
      </trkpt>
      <trkpt lat="47.72062" lon="7.42071">
        <ele>240.538834</ele>
        <time>2012-01-15T10:37:24Z</time>
      </trkpt>
      <trkpt lat="47.72156" lon="7.42052">
        <ele>241.82811</ele>
        <time>2012-01-15T10:37:41Z</time>
      </trkpt>
      <trkpt lat="47.72246" lon="7.42037">
        <ele>241.343857</ele>
        <time>2012-01-15T10:37:57Z</time>
      </trkpt>
      <trkpt lat="47.72339" lon="7.4202">
        <ele>247.339645</ele>
        <time>2012-01-15T10:38:15Z</time>
      </trkpt>
      <trkpt lat="47.72431" lon="7.42051">
        <ele>240.070206</ele>
        <time>2012-01-15T10:38:48Z</time>
      </trkpt>
      <trkpt lat="47.72523" lon="7.42058">
        <ele>242.168167</ele>
        <time>2012-01-15T10:39:05Z</time>
      </trkpt>
      <trkpt lat="47.72613" lon="7.42073">
        <ele>241.077438</ele>
        <time>2012-01-15T10:39:22Z</time>
      </trkpt>
      <trkpt lat="47.72708" lon="7.42078">
        <ele>239.093948</ele>
        <time>2012-01-15T10:39:39Z</time>
      </trkpt>
      <trkpt lat="47.72728" lon="7.4221">
        <ele>243.635086</ele>
        <time>2012-01-15T10:40:06Z</time>
      </trkpt>
      <trkpt lat="47.72815" lon="7.42247">
        <ele>238.214554</ele>
        <time>2012-01-15T10:40:28Z</time>
      </trkpt>
      <trkpt lat="47.72774" lon="7.42368">
        <ele>240.329208</ele>
        <time>2012-01-15T11:17:43Z</time>
      </trkpt>
      <trkpt lat="47.72834" lon="7.4226">
        <ele>242.339249</ele>
        <time>2012-01-15T11:19:43Z</time>
      </trkpt>
      <trkpt lat="47.72836" lon="7.42118">
        <ele>232.614731</ele>
        <time>2012-01-15T11:20:04Z</time>
      </trkpt>
      <trkpt lat="47.72919" lon="7.4217">
        <ele>249.45433</ele>
        <time>2012-01-15T11:20:30Z</time>
      </trkpt>
      <trkpt lat="47.73014" lon="7.42176">
        <ele>246.460098</ele>
        <time>2012-01-15T11:20:47Z</time>
      </trkpt>
      <trkpt lat="47.73105" lon="7.42181">
        <ele>247.705734</ele>
        <time>2012-01-15T11:21:02Z</time>
      </trkpt>
      <trkpt lat="47.73196" lon="7.42182">
        <ele>244.002243</ele>
        <time>2012-01-15T11:21:18Z</time>
      </trkpt>
      <trkpt lat="47.73287" lon="7.42185">
        <ele>241.434952</ele>
        <time>2012-01-15T11:21:33Z</time>
      </trkpt>
      <trkpt lat="47.73373" lon="7.42144">
        <ele>240.888321</ele>
        <time>2012-01-15T11:21:49Z</time>
      </trkpt>
      <trkpt lat="47.73453" lon="7.4208">
        <ele>242.251358</ele>
        <time>2012-01-15T11:22:04Z</time>
      </trkpt>
      <trkpt lat="47.73534" lon="7.4201">
        <ele>241.927292</ele>
        <time>2012-01-15T11:22:21Z</time>
      </trkpt>
      <trkpt lat="47.73615" lon="7.41945">
        <ele>240.46608</ele>
        <time>2012-01-15T11:22:39Z</time>
      </trkpt>
      <trkpt lat="47.73707" lon="7.41917">
        <ele>244.324326</ele>
        <time>2012-01-15T11:24:12Z</time>
      </trkpt>
      <trkpt lat="47.73786" lon="7.41841">
        <ele>246.148575</ele>
        <time>2012-01-15T11:24:29Z</time>
      </trkpt>
      <trkpt lat="47.73874" lon="7.41801">
        <ele>244.904129</ele>
        <time>2012-01-15T11:24:45Z</time>
      </trkpt>
      <trkpt lat="47.73947" lon="7.41716">
        <ele>242.537277</ele>
        <time>2012-01-15T11:25:01Z</time>
      </trkpt>
      <trkpt lat="47.74023" lon="7.41635">
        <ele>246.887772</ele>
        <time>2012-01-15T11:25:16Z</time>
      </trkpt>
      <trkpt lat="47.74111" lon="7.41582">
        <ele>238.420975</ele>
        <time>2012-01-15T11:25:34Z</time>
      </trkpt>
      <trkpt lat="47.74192" lon="7.41516">
        <ele>249.672348</ele>
        <time>2012-01-15T11:25:51Z</time>
      </trkpt>
      <trkpt lat="47.74262" lon="7.41425">
        <ele>252.507584</ele>
        <time>2012-01-15T11:26:16Z</time>
      </trkpt>
      <trkpt lat="47.74335" lon="7.41347">
        <ele>243.62532</ele>
        <time>2012-01-15T11:26:33Z</time>
      </trkpt>
      <trkpt lat="47.74415" lon="7.41278">
        <ele>236.913528</ele>
        <time>2012-01-15T11:26:51Z</time>
      </trkpt>
      <trkpt lat="47.74495" lon="7.41211">
        <ele>244.775803</ele>
        <time>2012-01-15T11:27:09Z</time>
      </trkpt>
      <trkpt lat="47.74576" lon="7.41145">
        <ele>246.974899</ele>
        <time>2012-01-15T11:27:26Z</time>
      </trkpt>
      <trkpt lat="47.74656" lon="7.41075">
        <ele>242.216934</ele>
        <time>2012-01-15T11:27:45Z</time>
      </trkpt>
      <trkpt lat="47.74622" lon="7.40944">
        <ele>240.762589</ele>
        <time>2012-01-15T11:28:15Z</time>
      </trkpt>
      <trkpt lat="47.74545" lon="7.40869">
        <ele>247.3806</ele>
        <time>2012-01-15T11:28:36Z</time>
      </trkpt>
      <trkpt lat="47.74473" lon="7.40787">
        <ele>244.128983</ele>
        <time>2012-01-15T11:28:58Z</time>
      </trkpt>
      <trkpt lat="47.74452" lon="7.40653">
        <ele>241.598709</ele>
        <time>2012-01-15T11:29:20Z</time>
      </trkpt>
      <trkpt lat="47.74485" lon="7.40527">
        <ele>240.457138</ele>
        <time>2012-01-15T11:29:41Z</time>
      </trkpt>
      <trkpt lat="47.74503" lon="7.40393">
        <ele>242.886459</ele>
        <time>2012-01-15T11:30:01Z</time>
      </trkpt>
      <trkpt lat="47.74502" lon="7.40255">
        <ele>247.948074</ele>
        <time>2012-01-15T11:30:29Z</time>
      </trkpt>
      <trkpt lat="47.7449" lon="7.40122">
        <ele>238.653824</ele>
        <time>2012-01-15T11:32:13Z</time>
      </trkpt>
      <trkpt lat="47.74496" lon="7.39988">
        <ele>245.117783</ele>
        <time>2012-01-15T11:32:44Z</time>
      </trkpt>
      <trkpt lat="47.74585" lon="7.39956">
        <ele>245.889542</ele>
        <time>2012-01-15T11:33:02Z</time>
      </trkpt>
      <trkpt lat="47.74676" lon="7.39924">
        <ele>245.19014</ele>
        <time>2012-01-15T11:33:19Z</time>
      </trkpt>
      <trkpt lat="47.7476" lon="7.39876">
        <ele>243.158096</ele>
        <time>2012-01-15T11:33:36Z</time>
      </trkpt>
      <trkpt lat="47.7482" lon="7.39768">
        <ele>245.511551</ele>
        <time>2012-01-15T11:33:53Z</time>
      </trkpt>
      <trkpt lat="47.74835" lon="7.39628">
        <ele>239.798416</ele>
        <time>2012-01-15T11:34:10Z</time>
      </trkpt>
      <trkpt lat="47.7484" lon="7.3949">
        <ele>244.666824</ele>
        <time>2012-01-15T11:34:26Z</time>
      </trkpt>
      <trkpt lat="47.74893" lon="7.39379">
        <ele>246.943558</ele>
        <time>2012-01-15T11:34:48Z</time>
      </trkpt>
    </trkseg>
  </trk>
</gpx>